Time;durP1;ratioP1;P1;durP2;ratioP2;P2;SDS_P1;SDS_P2;PMS_P1;PMS_P2;Temp;Humidity;BMP_temperature;BMP_pressure;BME280_temperature;BME280_humidity;BME280_pressure;Samples;Min_cycle;Max_cycle;Signal;HPM_P1;HPM_P2
2021/06/15 00:01:55;;;;;;;2.87;2.67;;;22.00;82.40;;;;;;5033327;28;20465;-75
2021/06/15 00:04:21;;;;;;;2.70;2.50;;;22.00;81.60;;;;;;5046462;28;20218;-74
2021/06/15 00:06:47;;;;;;;2.60;2.30;;;22.00;81.70;;;;;;5048819;28;20770;-74
2021/06/15 00:09:12;;;;;;;3.47;2.80;;;22.00;81.90;;;;;;5064816;28;20230;-74
2021/06/15 00:11:38;;;;;;;2.93;2.73;;;22.00;81.60;;;;;;5039787;28;20211;-77
2021/06/15 00:14:04;;;;;;;3.07;2.87;;;22.00;81.50;;;;;;5046831;28;20210;-74
2021/06/15 00:16:30;;;;;;;2.90;2.70;;;21.90;81.60;;;;;;5046793;28;20218;-75
2021/06/15 00:18:56;;;;;;;3.00;2.80;;;21.90;81.80;;;;;;5048858;28;20478;-77
2021/06/15 00:21:22;;;;;;;2.73;2.53;;;21.90;81.70;;;;;;5048180;28;20473;-74
2021/06/15 00:23:48;;;;;;;3.40;3.20;;;21.90;81.80;;;;;;5064403;28;20241;-75
2021/06/15 00:26:13;;;;;;;3.50;2.70;;;21.90;82.00;;;;;;5030227;28;20333;-75
2021/06/15 00:28:39;;;;;;;3.20;2.80;;;21.70;82.30;;;;;;5036721;28;20229;-74
2021/06/15 00:31:05;;;;;;;3.10;2.60;;;21.70;82.60;;;;;;5035493;28;20223;-75
2021/06/15 00:33:30;;;;;;;3.00;2.80;;;21.60;83.10;;;;;;5028288;28;20284;-74
2021/06/15 00:35:56;;;;;;;5.70;3.40;;;21.60;82.70;;;;;;5053566;28;20215;-74
2021/06/15 00:38:22;;;;;;;3.27;2.97;;;21.60;82.70;;;;;;5060439;28;20255;-74
2021/06/15 00:40:48;;;;;;;3.17;2.87;;;21.60;82.80;;;;;;5048119;28;20289;-74
2021/06/15 00:43:14;;;;;;;3.30;3.10;;;21.60;82.70;;;;;;5062337;28;20991;-75
2021/06/15 00:45:40;;;;;;;2.83;2.53;;;21.60;83.20;;;;;;5034274;28;20313;-78
2021/06/15 00:48:35;;;;;;;3.07;2.70;;;21.40;83.40;;;;;;5042939;28;20306;-75
2021/06/15 00:51:05;;;;;;;160.07;88.23;;;21.40;83.80;;;;;;5062199;28;20452;-75
2021/06/15 00:53:33;;;;;;;39.93;24.87;;;21.30;83.70;;;;;;5065444;28;20455;-75
2021/06/15 00:56:00;;;;;;;8.87;6.73;;;21.30;84.10;;;;;;5036059;28;20535;-77
2021/06/15 00:58:26;;;;;;;6.00;5.00;;;21.30;84.30;;;;;;5046791;28;20591;-74
2021/06/15 01:00:53;;;;;;;4.93;4.17;;;21.30;84.70;;;;;;5048794;28;20488;-74
2021/06/15 01:03:21;;;;;;;4.57;4.17;;;21.30;84.60;;;;;;5064922;28;20544;-74
2021/06/15 01:05:47;;;;;;;5.50;3.53;;;21.30;84.40;;;;;;5067304;28;20876;-74
2021/06/15 01:08:36;;;;;;;3.20;2.97;;;21.30;84.40;;;;;;5023323;28;20474;-75
2021/06/15 01:11:19;;;;;;;5.20;3.20;;;21.30;84.40;;;;;;5047696;28;20457;-75
2021/06/15 01:14:05;;;;;;;3.53;3.10;;;21.30;84.50;;;;;;5052736;28;20455;-77
2021/06/15 01:16:50;;;;;;;3.00;2.63;;;21.20;84.70;;;;;;5053015;28;20446;-75
2021/06/15 01:19:28;;;;;;;4.40;2.90;;;21.20;84.70;;;;;;5070090;28;20457;-75
2021/06/15 01:22:20;;;;;;;3.30;3.00;;;21.10;84.50;;;;;;5038932;28;20504;-74
2021/06/15 01:25:04;;;;;;;3.07;2.77;;;21.00;85.30;;;;;;5065658;28;20494;-75
2021/06/15 01:27:42;;;;;;;3.40;2.90;;;21.00;85.70;;;;;;5049382;28;20994;-75
2021/06/15 01:30:11;;;;;;;3.40;2.50;;;21.00;85.30;;;;;;5059612;28;20477;-75
2021/06/15 01:32:42;;;;;;;3.23;3.03;;;20.90;86.00;;;;;;5043381;28;20446;-74
2021/06/15 01:35:10;;;;;;;4.50;3.53;;;20.80;86.30;;;;;;5041718;28;20452;-74
2021/06/15 01:37:41;;;;;;;2.83;2.63;;;20.60;86.60;;;;;;5053101;28;20453;-77
2021/06/15 01:40:20;;;;;;;2.73;2.53;;;20.60;87.10;;;;;;5066914;28;20464;-75
2021/06/15 01:43:03;;;;;;;2.77;2.57;;;20.60;86.70;;;;;;5069165;28;20533;-75
2021/06/15 01:45:35;;;;;;;2.80;2.60;;;20.60;86.70;;;;;;5051623;28;20448;-75
2021/06/15 01:48:05;;;;;;;5.70;2.60;;;20.70;86.70;;;;;;5078864;28;20482;-76
2021/06/15 01:50:35;;;;;;;3.40;2.80;;;20.70;86.40;;;;;;5063469;28;20465;-75
2021/06/15 01:53:05;;;;;;;3.27;2.97;;;20.70;86.10;;;;;;5058435;28;20535;-74
2021/06/15 01:55:34;;;;;;;2.60;2.40;;;20.70;86.10;;;;;;5064145;28;20526;-74
2021/06/15 01:58:01;;;;;;;3.47;2.80;;;20.70;85.90;;;;;;5068683;28;20467;-78
2021/06/15 02:00:28;;;;;;;3.30;3.00;;;20.70;86.00;;;;;;5043924;28;20451;-74
2021/06/15 02:03:00;;;;;;;2.53;2.33;;;20.70;85.90;;;;;;5050604;28;21046;-75
2021/06/15 02:05:37;;;;;;;2.67;2.40;;;20.70;86.00;;;;;;5042280;28;20488;-76
2021/06/15 02:08:05;;;;;;;2.70;2.43;;;20.70;86.20;;;;;;5048291;28;20469;-74
2021/06/15 02:10:36;;;;;;;2.97;2.77;;;20.60;85.90;;;;;;5033806;28;20449;-74
2021/06/15 02:13:20;;;;;;;3.50;2.93;;;20.60;85.90;;;;;;5062838;28;20465;-75
2021/06/15 02:16:10;;;;;;;3.00;2.80;;;20.60;85.90;;;;;;5037624;28;20457;-74
2021/06/15 02:18:57;;;;;;;2.90;2.70;;;20.50;86.00;;;;;;5056355;28;20534;-75
2021/06/15 02:21:55;;;;;;;3.33;2.90;;;20.50;86.40;;;;;;5037602;28;20454;-74
2021/06/15 02:24:26;;;;;;;3.03;2.83;;;20.50;86.40;;;;;;5045815;28;20457;-74
2021/06/15 02:26:52;;;;;;;3.43;2.77;;;20.40;86.10;;;;;;5049134;28;20450;-74
2021/06/15 02:29:19;;;;;;;4.13;2.77;;;20.40;86.30;;;;;;5063430;28;20477;-74
2021/06/15 02:31:56;;;;;;;3.07;2.77;;;20.40;86.40;;;;;;5046081;28;20462;-77
2021/06/15 02:34:26;;;;;;;2.87;2.67;;;20.40;86.50;;;;;;5063911;28;22112;-75
2021/06/15 02:36:57;;;;;;;3.37;3.07;;;20.40;86.70;;;;;;5061813;28;20468;-75
2021/06/15 02:39:29;;;;;;;3.30;3.00;;;20.30;87.10;;;;;;5050640;28;20674;-75
2021/06/15 02:41:57;;;;;;;4.80;2.97;;;20.20;87.00;;;;;;5067130;28;20477;-74
2021/06/15 02:44:28;;;;;;;3.00;2.70;;;20.20;87.00;;;;;;5050183;28;20470;-74
2021/06/15 02:46:57;;;;;;;3.67;3.37;;;20.20;87.30;;;;;;5047159;28;20462;-75
2021/06/15 02:49:31;;;;;;;3.17;2.97;;;20.20;87.20;;;;;;5032309;28;20462;-74
2021/06/15 02:52:12;;;;;;;3.63;3.10;;;20.20;88.10;;;;;;5047863;28;20462;-75
2021/06/15 02:54:53;;;;;;;3.70;2.67;;;20.20;87.10;;;;;;5064079;28;20457;-74
2021/06/15 02:57:21;;;;;;;4.80;2.67;;;20.20;87.20;;;;;;5042452;28;20470;-75
2021/06/15 02:59:48;;;;;;;3.17;2.87;;;20.20;87.40;;;;;;5046995;28;20977;-75
2021/06/15 03:02:14;;;;;;;3.63;3.00;;;20.10;87.40;;;;;;5062184;28;20465;-75
2021/06/15 03:04:46;;;;;;;3.13;2.83;;;20.10;87.20;;;;;;5047822;28;20465;-74
2021/06/15 03:07:14;;;;;;;2.87;2.63;;;20.10;87.60;;;;;;5046675;28;20821;-75
2021/06/15 03:09:40;;;;;;;3.73;3.43;;;20.10;86.90;;;;;;5048556;28;20457;-78
2021/06/15 03:12:20;;;;;;;3.07;2.87;;;20.10;87.30;;;;;;5061287;28;20453;-75
2021/06/15 03:15:08;;;;;;;3.13;2.87;;;20.10;87.40;;;;;;5039171;28;20455;-74
2021/06/15 03:17:42;;;;;;;3.13;2.70;;;19.90;86.90;;;;;;5037253;28;21003;-74
2021/06/15 03:20:10;;;;;;;3.20;2.90;;;19.90;87.90;;;;;;5062512;28;20453;-75
2021/06/15 03:23:08;;;;;;;2.43;2.20;;;19.90;87.60;;;;;;5054307;28;20850;-75
2021/06/15 03:25:36;;;;;;;5.80;3.77;;;19.90;88.30;;;;;;5039939;28;20509;-74
2021/06/15 03:28:15;;;;;;;3.70;3.00;;;19.90;88.20;;;;;;5062093;28;20462;-75
2021/06/15 03:30:43;;;;;;;5.57;3.43;;;19.90;88.30;;;;;;5068028;28;20510;-74
2021/06/15 03:33:15;;;;;;;4.60;2.70;;;19.80;88.50;;;;;;5048697;28;20464;-74
2021/06/15 03:35:47;;;;;;;3.57;3.00;;;19.80;88.70;;;;;;5045523;28;20453;-74
2021/06/15 03:38:14;;;;;;;3.47;3.17;;;19.70;88.80;;;;;;5065270;28;20824;-74
2021/06/15 03:40:44;;;;;;;3.30;2.70;;;19.70;89.20;;;;;;5052939;28;20454;-75
2021/06/15 03:43:13;;;;;;;3.27;2.80;;;19.70;89.00;;;;;;5044447;28;20457;-74
2021/06/15 03:45:42;;;;;;;2.67;2.47;;;19.70;89.00;;;;;;5065215;28;20457;-73
2021/06/15 03:48:09;;;;;;;3.00;2.80;;;19.70;89.00;;;;;;5063531;28;20461;-74
2021/06/15 03:50:36;;;;;;;2.80;2.60;;;19.60;88.70;;;;;;5039941;28;20446;-74
2021/06/15 03:53:07;;;;;;;2.97;2.73;;;19.60;89.30;;;;;;5030933;28;20533;-74
2021/06/15 03:55:33;;;;;;;3.40;3.10;;;19.60;89.10;;;;;;5049688;28;20470;-74
2021/06/15 03:58:00;;;;;;;2.93;2.70;;;19.60;89.20;;;;;;5064260;28;20469;-75
2021/06/15 04:00:28;;;;;;;3.47;3.17;;;19.60;89.10;;;;;;5034043;28;20460;-74
2021/06/15 04:02:58;;;;;;;3.53;3.23;;;19.60;89.30;;;;;;5051743;28;20457;-74
2021/06/15 04:05:27;;;;;;;4.63;3.03;;;19.60;89.10;;;;;;5048335;28;20469;-74
2021/06/15 04:07:56;;;;;;;2.77;2.57;;;19.60;89.10;;;;;;5043679;28;20477;-73
2021/06/15 04:10:23;;;;;;;3.40;2.67;;;19.60;89.00;;;;;;5032072;28;20461;-74
2021/06/15 04:12:51;;;;;;;2.90;2.70;;;19.60;89.40;;;;;;5031324;28;20461;-74
2021/06/15 04:15:18;;;;;;;3.87;3.17;;;19.50;90.00;;;;;;5045175;28;20462;-74
2021/06/15 04:17:47;;;;;;;3.13;2.83;;;19.50;89.70;;;;;;5066845;28;20453;-74
2021/06/15 04:20:14;;;;;;;2.80;2.60;;;19.50;89.90;;;;;;5040571;28;20465;-74
2021/06/15 04:22:46;;;;;;;3.27;2.97;;;19.50;89.30;;;;;;5067397;28;20457;-75
2021/06/15 04:25:16;;;;;;;4.23;2.97;;;19.50;89.00;;;;;;5059080;28;20481;-74
2021/06/15 04:27:44;;;;;;;3.27;3.00;;;19.40;89.80;;;;;;5047665;28;20486;-74
2021/06/15 04:30:10;;;;;;;3.10;2.80;;;19.50;89.80;;;;;;5063674;28;20532;-74
2021/06/15 04:32:57;;;;;;;2.90;2.70;;;19.40;90.00;;;;;;5030976;28;20458;-74
2021/06/15 04:35:42;;;;;;;3.63;2.97;;;19.50;90.10;;;;;;5063062;28;20448;-73
2021/06/15 04:38:17;;;;;;;3.33;3.03;;;19.50;89.80;;;;;;5063655;28;20453;-74
2021/06/15 04:40:48;;;;;;;6.90;3.37;;;19.40;90.50;;;;;;5058940;28;20579;-74
2021/06/15 04:43:25;;;;;;;3.13;2.83;;;19.40;90.70;;;;;;5044080;28;21040;-74
2021/06/15 04:45:55;;;;;;;3.00;2.67;;;19.40;91.10;;;;;;5059425;28;20946;-74
2021/06/15 04:48:29;;;;;;;3.10;2.80;;;19.50;90.60;;;;;;5045429;28;20473;-74
2021/06/15 04:51:02;;;;;;;3.23;2.90;;;19.50;90.70;;;;;;5064932;28;20461;-73
2021/06/15 04:53:41;;;;;;;3.70;3.40;;;19.50;90.60;;;;;;5067456;28;20491;-74
2021/06/15 04:56:09;;;;;;;2.93;2.73;;;19.50;91.10;;;;;;5062968;28;20449;-73
2021/06/15 04:58:36;;;;;;;3.57;3.27;;;19.50;90.60;;;;;;5051497;28;20820;-73
2021/06/15 05:01:03;;;;;;;3.30;3.07;;;19.60;90.70;;;;;;5048697;28;20446;-74
2021/06/15 05:03:33;;;;;;;3.60;3.30;;;19.50;90.90;;;;;;5049742;28;20518;-76
2021/06/15 05:06:04;;;;;;;3.50;2.87;;;19.60;91.00;;;;;;5061372;28;20488;-74
2021/06/15 05:08:34;;;;;;;4.03;3.17;;;19.60;90.90;;;;;;5066916;28;20472;-75
2021/06/15 05:11:02;;;;;;;3.83;3.13;;;19.60;91.00;;;;;;5065847;28;20496;-76
2021/06/15 05:13:31;;;;;;;5.53;3.77;;;19.60;91.00;;;;;;5069460;28;20969;-73
2021/06/15 05:15:58;;;;;;;4.40;2.80;;;19.60;91.00;;;;;;5065799;28;20827;-75
2021/06/15 05:18:24;;;;;;;4.50;3.20;;;19.60;91.00;;;;;;5063540;28;20466;-74
2021/06/15 05:20:51;;;;;;;4.13;3.70;;;19.60;91.00;;;;;;5064656;28;20816;-73
2021/06/15 05:23:42;;;;;;;3.50;3.20;;;19.60;90.90;;;;;;5035114;28;20214;-74
2021/06/15 05:26:08;;;;;;;4.03;2.97;;;19.70;91.70;;;;;;5048057;28;20525;-76
2021/06/15 05:28:33;;;;;;;3.70;2.80;;;19.70;91.20;;;;;;5044334;28;20592;-77
2021/06/15 05:30:59;;;;;;;3.37;3.07;;;19.70;91.00;;;;;;5050540;28;20318;-76
2021/06/15 05:33:25;;;;;;;4.90;3.10;;;19.70;91.10;;;;;;5050930;28;20306;-75
2021/06/15 05:35:50;;;;;;;3.03;2.83;;;19.70;91.30;;;;;;5050726;28;20215;-76
2021/06/15 05:38:16;;;;;;;3.20;2.90;;;19.70;91.20;;;;;;5050150;28;20879;-76
2021/06/15 05:40:44;;;;;;;3.53;3.20;;;19.80;91.40;;;;;;5048410;28;20310;-77
2021/06/15 05:43:10;;;;;;;5.17;3.93;;;19.80;91.50;;;;;;5045292;28;20690;-76
2021/06/15 05:45:36;;;;;;;3.20;3.00;;;19.80;91.50;;;;;;5050042;28;20472;-76
2021/06/15 05:48:02;;;;;;;3.20;2.77;;;19.90;91.40;;;;;;5034110;28;20236;-76
2021/06/15 05:50:28;;;;;;;3.83;2.80;;;19.90;91.90;;;;;;5033238;28;20224;-76
2021/06/15 05:52:53;;;;;;;5.30;3.47;;;19.90;91.50;;;;;;5034699;28;20211;-75
2021/06/15 05:55:19;;;;;;;5.57;3.40;;;20.00;91.70;;;;;;5047673;28;20214;-76
2021/06/15 05:57:45;;;;;;;6.27;3.00;;;20.00;91.80;;;;;;5037734;28;20246;-76
2021/06/15 06:00:11;;;;;;;4.00;3.60;;;20.00;91.60;;;;;;5056874;28;20219;-76
2021/06/15 06:02:40;;;;;;;4.93;3.13;;;20.10;92.20;;;;;;5052323;28;20225;-76
2021/06/15 06:10:23;;;;;;;3.50;2.93;;;20.30;92.70;;;;;;5046209;28;20453;-76
2021/06/15 06:12:49;;;;;;;4.93;4.30;;;20.30;92.70;;;;;;5052973;28;20450;-76
2021/06/15 06:15:16;;;;;;;3.90;3.33;;;20.40;92.70;;;;;;5058133;28;20801;-76
2021/06/15 06:17:42;;;;;;;4.20;3.80;;;20.50;92.80;;;;;;5048819;28;20223;-74
2021/06/15 06:20:10;;;;;;;3.67;3.37;;;20.50;93.00;;;;;;5032334;28;20457;-74
2021/06/15 06:22:36;;;;;;;6.20;3.80;;;20.50;93.50;;;;;;5031987;28;20215;-74
2021/06/15 06:25:04;;;;;;;5.10;3.60;;;20.60;93.70;;;;;;5046945;28;20533;-74
2021/06/15 06:27:30;;;;;;;5.20;4.00;;;20.70;93.60;;;;;;5043266;28;20464;-74
2021/06/15 06:29:55;;;;;;;3.10;2.80;;;20.70;94.40;;;;;;5033346;28;20969;-74
2021/06/15 06:32:21;;;;;;;3.80;3.50;;;20.80;93.60;;;;;;5016408;28;20292;-73
2021/06/15 06:34:47;;;;;;;3.87;3.47;;;20.90;93.90;;;;;;5056543;28;20611;-74
2021/06/15 06:37:12;;;;;;;4.07;3.67;;;20.90;93.40;;;;;;5052071;28;20218;-74
2021/06/15 06:39:39;;;;;;;3.70;3.30;;;21.00;93.80;;;;;;5021784;28;20211;-75
2021/06/15 06:42:05;;;;;;;3.73;3.43;;;21.10;94.20;;;;;;5027578;28;20219;-77
2021/06/15 06:44:31;;;;;;;3.80;3.50;;;21.10;94.50;;;;;;5015407;28;20557;-76
2021/06/15 06:46:56;;;;;;;5.30;3.30;;;21.30;94.50;;;;;;5031210;28;20604;-76
2021/06/15 06:49:22;;;;;;;4.93;3.70;;;21.30;94.80;;;;;;5011792;28;20232;-75
2021/06/15 06:51:48;;;;;;;5.23;4.73;;;21.40;95.00;;;;;;5034625;28;20215;-77
2021/06/15 06:54:13;;;;;;;3.27;3.07;;;21.60;95.30;;;;;;5031317;28;20219;-76
2021/06/15 06:56:39;;;;;;;3.60;3.30;;;21.70;95.70;;;;;;5050312;28;20227;-78
2021/06/15 06:59:05;;;;;;;3.30;3.00;;;21.80;95.80;;;;;;5031565;28;20671;-76
2021/06/15 07:01:30;;;;;;;9.10;3.50;;;21.90;95.90;;;;;;5067181;28;20578;-76
2021/06/15 07:03:56;;;;;;;4.27;3.53;;;22.00;95.70;;;;;;5050399;28;20246;-76
2021/06/15 07:06:22;;;;;;;3.40;3.10;;;22.10;96.00;;;;;;5032391;28;20237;-76
2021/06/15 07:08:48;;;;;;;3.20;2.90;;;22.20;96.00;;;;;;5033195;28;20325;-77
2021/06/15 07:11:14;;;;;;;6.10;3.57;;;22.30;96.00;;;;;;5026285;28;20219;-76
2021/06/15 07:13:39;;;;;;;5.13;3.50;;;22.40;96.00;;;;;;5043167;28;20473;-78
2021/06/15 07:16:06;;;;;;;4.30;3.93;;;22.50;95.90;;;;;;5028394;28;20258;-76
2021/06/15 07:18:35;;;;;;;5.43;3.67;;;22.60;96.10;;;;;;5044314;28;20231;-76
2021/06/15 07:21:03;;;;;;;3.63;3.37;;;22.70;96.00;;;;;;5070880;28;20445;-74
2021/06/15 07:23:29;;;;;;;4.10;3.70;;;22.80;95.90;;;;;;5066749;28;20460;-74
2021/06/15 07:25:54;;;;;;;6.03;3.60;;;22.80;96.00;;;;;;5034406;28;20457;-74
2021/06/15 07:28:20;;;;;;;5.73;4.73;;;22.90;96.10;;;;;;5047639;28;20717;-74
2021/06/15 07:30:46;;;;;;;5.63;4.00;;;23.00;96.00;;;;;;5039817;28;20301;-74
2021/06/15 07:33:12;;;;;;;4.30;2.93;;;23.00;95.90;;;;;;5068051;28;20601;-74
2021/06/15 07:35:37;;;;;;;4.20;3.80;;;23.10;95.90;;;;;;5087239;28;20216;-74
2021/06/15 07:38:03;;;;;;;4.50;4.07;;;23.20;96.10;;;;;;5042116;28;20309;-73
2021/06/15 07:40:29;;;;;;;4.47;3.80;;;23.30;96.20;;;;;;5075535;28;20218;-74
2021/06/15 07:42:57;;;;;;;4.30;3.53;;;23.30;96.00;;;;;;5068017;28;20225;-74
2021/06/15 07:45:24;;;;;;;4.10;3.80;;;23.40;96.00;;;;;;5039224;28;20236;-74
2021/06/15 07:47:50;;;;;;;5.83;3.77;;;23.50;96.10;;;;;;5027949;28;20472;-74
2021/06/15 07:50:17;;;;;;;3.87;3.57;;;23.60;96.40;;;;;;5047101;28;20540;-74
2021/06/15 07:52:44;;;;;;;3.47;3.27;;;23.80;96.40;;;;;;5041525;28;20226;-74
2021/06/15 07:55:12;;;;;;;3.97;3.60;;;23.90;96.60;;;;;;5056094;28;20457;-74
2021/06/15 07:57:37;;;;;;;3.70;3.33;;;24.00;96.60;;;;;;5050341;28;20468;-75
2021/06/15 08:00:05;;;;;;;4.87;3.60;;;24.10;96.50;;;;;;5063670;28;20480;-73
2021/06/15 08:02:39;;;;;;;4.03;3.73;;;24.20;96.20;;;;;;5046893;28;20721;-74
2021/06/15 08:05:05;;;;;;;3.73;3.43;;;24.30;96.10;;;;;;5064306;28;20464;-74
2021/06/15 08:07:31;;;;;;;4.63;3.77;;;24.40;96.20;;;;;;5066272;28;20929;-74
2021/06/15 08:09:57;;;;;;;5.63;4.00;;;24.50;96.20;;;;;;5050143;28;21079;-74
2021/06/15 08:12:23;;;;;;;3.73;3.43;;;24.50;96.10;;;;;;5065570;28;20226;-74
2021/06/15 08:14:48;;;;;;;7.20;4.23;;;24.60;96.00;;;;;;5065780;28;20592;-74
2021/06/15 08:17:14;;;;;;;4.17;3.77;;;24.60;95.90;;;;;;5027799;28;20454;-75
2021/06/15 08:19:40;;;;;;;4.50;4.10;;;24.80;96.00;;;;;;5055676;28;20361;-75
2021/06/15 08:22:06;;;;;;;4.57;4.17;;;24.80;95.70;;;;;;5046474;28;20945;-74
2021/06/15 08:24:32;;;;;;;3.50;3.30;;;24.80;95.60;;;;;;5048944;28;20215;-74
2021/06/15 08:26:58;;;;;;;5.17;4.53;;;24.80;95.60;;;;;;5065236;28;20214;-74
2021/06/15 08:29:24;;;;;;;4.83;4.37;;;24.90;95.50;;;;;;5059900;28;20492;-74
2021/06/15 08:31:50;;;;;;;8.50;4.90;;;25.00;95.20;;;;;;5046926;28;20222;-74
2021/06/15 08:34:16;;;;;;;4.47;3.60;;;25.00;95.00;;;;;;5062880;28;20219;-74
2021/06/15 08:36:41;;;;;;;6.43;3.80;;;25.00;95.10;;;;;;5048738;28;20741;-74
2021/06/15 08:39:08;;;;;;;4.17;3.77;;;25.10;94.40;;;;;;5027175;28;20229;-74
2021/06/15 08:41:35;;;;;;;4.10;3.80;;;25.20;94.70;;;;;;5029369;28;20276;-74
2021/06/15 08:44:03;;;;;;;4.43;4.10;;;25.30;94.50;;;;;;5054438;28;20461;-76
2021/06/15 08:46:29;;;;;;;4.33;3.87;;;25.30;94.00;;;;;;5031446;28;20504;-75
2021/06/15 08:48:56;;;;;;;4.23;3.93;;;25.40;93.70;;;;;;5048148;28;20485;-74
2021/06/15 08:51:21;;;;;;;4.30;4.00;;;25.50;93.60;;;;;;5047550;28;20457;-75
2021/06/15 08:53:52;;;;;;;3.90;3.60;;;25.50;93.50;;;;;;5029039;28;20469;-74
2021/06/15 08:56:30;;;;;;;4.30;4.00;;;25.50;93.60;;;;;;5043807;28;20248;-75
2021/06/15 08:59:22;;;;;;;4.33;3.93;;;25.60;93.80;;;;;;5052360;28;20468;-75
2021/06/15 09:01:56;;;;;;;5.07;4.60;;;25.80;93.70;;;;;;5056752;28;20456;-74
2021/06/15 09:04:22;;;;;;;4.10;3.67;;;26.00;93.80;;;;;;5038279;28;20462;-75
2021/06/15 09:06:49;;;;;;;4.23;3.83;;;26.10;93.80;;;;;;5020940;28;20864;-74
2021/06/15 09:09:15;;;;;;;4.87;4.47;;;26.30;93.70;;;;;;5034490;28;20244;-76
2021/06/15 09:11:53;;;;;;;4.30;3.43;;;26.40;93.70;;;;;;5056260;28;20465;-76
2021/06/15 09:14:55;;;;;;;3.90;3.60;;;26.50;93.60;;;;;;5054510;28;20472;-76
2021/06/15 09:17:27;;;;;;;3.80;3.50;;;26.60;93.60;;;;;;5053242;28;20959;-76
2021/06/15 09:19:58;;;;;;;5.70;4.20;;;26.70;93.50;;;;;;5064382;28;20461;-75
2021/06/15 09:22:34;;;;;;;4.67;4.20;;;26.90;94.00;;;;;;5062510;28;20452;-75
2021/06/15 09:25:05;;;;;;;4.17;3.57;;;27.10;93.30;;;;;;5036413;28;21016;-75
2021/06/15 09:27:33;;;;;;;4.37;3.97;;;27.20;93.00;;;;;;5055610;28;20539;-75
2021/06/15 09:30:01;;;;;;;4.30;3.90;;;27.20;92.80;;;;;;5064892;28;20456;-76
2021/06/15 09:32:30;;;;;;;4.77;4.37;;;27.30;92.90;;;;;;5045552;28;20476;-75
2021/06/15 09:34:59;;;;;;;4.57;4.17;;;27.40;92.80;;;;;;5060128;28;20492;-76
2021/06/15 09:37:30;;;;;;;4.43;4.10;;;27.50;92.80;;;;;;5059142;28;20979;-76
2021/06/15 09:39:56;;;;;;;5.60;4.40;;;27.70;92.00;;;;;;5052251;28;20452;-76
2021/06/15 09:42:22;;;;;;;4.30;3.90;;;27.80;91.50;;;;;;5030616;28;20468;-75
2021/06/15 09:44:47;;;;;;;3.10;2.90;;;27.90;91.70;;;;;;5025949;28;20211;-75
2021/06/15 09:47:13;;;;;;;7.80;4.60;;;27.90;91.20;;;;;;5026922;28;20624;-76
2021/06/15 09:49:44;;;;;;;5.03;4.27;;;27.90;91.20;;;;;;5066780;28;20233;-76
2021/06/15 09:52:09;;;;;;;3.70;3.40;;;28.00;91.40;;;;;;5059678;28;20218;-76
2021/06/15 09:54:47;;;;;;;5.90;4.47;;;28.00;91.40;;;;;;5068650;28;20827;-76
2021/06/15 09:57:20;;;;;;;4.57;4.20;;;28.00;91.10;;;;;;5050374;28;20230;-76
2021/06/15 10:00:19;;;;;;;4.77;3.97;;;28.10;91.00;;;;;;5052229;28;20461;-76
2021/06/15 10:02:51;;;;;;;4.73;4.33;;;28.10;90.80;;;;;;5043186;28;20253;-76
2021/06/15 10:05:31;;;;;;;5.57;4.20;;;28.10;90.60;;;;;;5045573;28;20820;-76
2021/06/15 10:08:00;;;;;;;4.70;4.30;;;28.30;90.70;;;;;;5019441;28;20576;-76
2021/06/15 10:10:32;;;;;;;5.03;4.50;;;28.30;90.60;;;;;;5064530;28;20221;-76
2021/06/15 10:12:58;;;;;;;4.73;4.33;;;28.50;90.40;;;;;;5067785;28;20230;-76
2021/06/15 10:15:26;;;;;;;5.32;4.85;;;28.70;88.80;;;;;;5062573;28;20225;-76
2021/06/15 10:17:52;;;;;;;4.90;4.40;;;28.50;88.90;;;;;;5032157;28;20224;-76
2021/06/15 10:20:23;;;;;;;4.73;4.30;;;28.60;89.70;;;;;;5042802;28;20222;-76
2021/06/15 10:22:50;;;;;;;4.88;4.38;;;28.70;90.10;;;;;;5034234;28;20598;-76
2021/06/15 10:25:19;;;;;;;5.07;4.18;;;28.80;90.20;;;;;;5048205;28;20306;-76
2021/06/15 10:27:46;;;;;;;4.10;3.80;;;29.00;90.30;;;;;;5064837;28;20231;-76
2021/06/15 10:30:13;;;;;;;4.72;4.32;;;29.10;90.00;;;;;;5065315;28;20217;-76
2021/06/15 10:33:02;;;;;;;4.72;4.32;;;29.20;88.10;;;;;;5063971;28;20230;-76
2021/06/15 10:35:47;;;;;;;4.47;4.18;;;29.10;87.60;;;;;;5068281;28;20210;-76
2021/06/15 10:38:43;;;;;;;4.68;4.28;;;29.30;88.40;;;;;;5063763;28;20254;-76
2021/06/15 10:41:22;;;;;;;5.85;4.88;;;29.50;86.50;;;;;;5032323;28;20722;-76
2021/06/15 10:43:49;;;;;;;5.43;4.93;;;29.80;86.40;;;;;;5070375;28;20222;-76
2021/06/15 10:46:19;;;;;;;5.13;4.57;;;29.80;85.60;;;;;;5057899;28;20862;-74
2021/06/15 10:48:47;;;;;;;4.90;4.50;;;29.80;85.00;;;;;;5066719;28;20226;-76
2021/06/15 10:51:36;;;;;;;6.68;4.22;;;29.90;84.90;;;;;;5046585;28;20230;-76
2021/06/15 10:54:25;;;;;;;6.82;4.13;;;30.30;84.60;;;;;;5053908;28;20243;-76
2021/06/15 10:57:20;;;;;;;4.88;4.47;;;30.50;82.50;;;;;;5047902;28;20344;-76
2021/06/15 10:59:59;;;;;;;4.50;4.10;;;30.70;81.50;;;;;;5044047;28;20227;-76
2021/06/15 11:02:28;;;;;;;7.05;4.63;;;30.80;81.20;;;;;;5013928;28;20211;-76
2021/06/15 11:04:55;;;;;;;4.75;4.35;;;30.80;80.20;;;;;;5013854;28;20227;-76
2021/06/15 11:07:38;;;;;;;5.00;4.60;;;30.80;79.40;;;;;;5032022;28;20227;-76
2021/06/15 11:10:05;;;;;;;4.68;4.28;;;30.70;80.00;;;;;;5000217;28;20577;-76
2021/06/15 11:12:31;;;;;;;4.72;4.32;;;30.70;79.90;;;;;;5068896;28;20581;-75
2021/06/15 11:15:21;;;;;;;4.60;4.30;;;30.70;80.70;;;;;;5069517;28;20671;-76
2021/06/15 11:17:51;;;;;;;5.00;4.13;;;30.90;80.20;;;;;;5048245;28;20269;-75
2021/06/15 11:20:38;;;;;;;10.15;4.72;;;31.00;78.90;;;;;;5069029;28;20755;-76
2021/06/15 11:23:22;;;;;;;4.93;4.50;;;31.20;78.20;;;;;;5069160;28;20222;-74
2021/06/15 11:25:59;;;;;;;5.55;4.80;;;31.20;78.70;;;;;;5050903;28;20215;-75
2021/06/15 11:28:43;;;;;;;6.18;4.20;;;31.20;78.60;;;;;;5031781;28;20684;-76
2021/06/15 11:31:30;;;;;;;5.97;4.10;;;31.30;78.80;;;;;;5053231;28;20274;-76
2021/06/15 11:33:59;;;;;;;5.88;5.38;;;31.30;79.00;;;;;;5026148;28;20224;-76
2021/06/15 11:36:43;;;;;;;5.45;4.75;;;31.20;78.40;;;;;;5034029;28;20697;-75
2021/06/15 11:39:24;;;;;;;5.13;4.72;;;31.10;77.00;;;;;;5025353;28;20277;-76
2021/06/15 11:42:17;;;;;;;10.07;6.03;;;30.90;78.80;;;;;;5029065;28;20753;-75
2021/06/15 11:45:18;;;;;;;4.60;4.20;;;31.00;78.50;;;;;;5046044;28;20276;-75
2021/06/15 11:47:48;;;;;;;7.22;5.03;;;31.00;77.80;;;;;;5068097;28;20296;-76
2021/06/15 11:50:30;;;;;;;4.97;4.57;;;31.10;77.20;;;;;;5034613;28;20223;-76
2021/06/15 11:53:25;;;;;;;5.03;4.63;;;31.30;77.00;;;;;;5058920;28;20297;-75
2021/06/15 11:55:58;;;;;;;5.18;4.50;;;31.40;76.60;;;;;;5044521;28;20272;-75
2021/06/15 11:58:24;;;;;;;6.05;4.28;;;31.40;76.90;;;;;;5045147;28;20223;-77
2021/06/15 12:01:10;;;;;;;5.03;4.50;;;31.40;76.30;;;;;;5065886;28;20288;-76
2021/06/15 12:03:42;;;;;;;4.90;4.00;;;31.40;75.70;;;;;;5062822;28;20312;-76
2021/06/15 12:06:09;;;;;;;4.15;3.85;;;31.50;76.10;;;;;;5069946;28;20222;-76
2021/06/15 12:08:39;;;;;;;5.30;4.28;;;31.60;75.20;;;;;;5055087;28;20613;-76
2021/06/15 12:11:09;;;;;;;6.82;4.30;;;31.70;75.20;;;;;;5062762;28;20670;-75
2021/06/15 12:13:36;;;;;;;5.18;4.78;;;31.70;75.20;;;;;;5048586;28;20284;-75
2021/06/15 12:16:03;;;;;;;5.10;4.70;;;31.70;74.30;;;;;;5044503;28;20243;-75
2021/06/15 12:18:30;;;;;;;5.32;4.57;;;31.70;75.40;;;;;;5018747;28;20236;-75
2021/06/15 12:21:03;;;;;;;5.07;4.63;;;31.70;74.10;;;;;;5050646;28;20772;-75
2021/06/15 12:23:47;;;;;;;5.00;4.55;;;31.70;74.60;;;;;;5031407;28;20227;-75
2021/06/15 12:26:14;;;;;;;4.97;4.55;;;31.80;75.20;;;;;;5041111;28;20285;-75
2021/06/15 12:28:45;;;;;;;4.75;4.30;;;31.90;73.70;;;;;;5048457;28;20238;-75
2021/06/15 12:31:13;;;;;;;5.05;4.65;;;32.00;72.80;;;;;;5048637;28;20242;-75
2021/06/15 12:33:41;;;;;;;4.93;4.63;;;32.10;72.90;;;;;;5064928;28;20217;-76
2021/06/15 12:36:09;;;;;;;5.45;4.95;;;32.00;73.30;;;;;;5064055;28;20282;-75
2021/06/15 12:38:36;;;;;;;7.57;4.10;;;32.10;73.90;;;;;;5060310;28;20250;-76
2021/06/15 12:41:05;;;;;;;4.47;4.18;;;32.20;74.00;;;;;;5051741;28;20219;-75
2021/06/15 12:43:31;;;;;;;5.00;4.32;;;32.30;73.60;;;;;;5035348;28;20222;-75
2021/06/15 12:46:18;;;;;;;4.95;4.50;;;32.40;73.40;;;;;;5048963;28;20220;-75
2021/06/15 12:48:50;;;;;;;5.38;4.88;;;32.50;74.20;;;;;;5041327;28;20231;-76
2021/06/15 12:51:18;;;;;;;5.60;4.55;;;32.50;73.00;;;;;;5045889;28;20223;-75
2021/06/15 12:53:44;;;;;;;4.50;4.10;;;32.50;73.20;;;;;;5076214;28;20246;-74
2021/06/15 12:56:23;;;;;;;4.55;4.25;;;32.50;74.10;;;;;;5035007;28;20246;-75
2021/06/15 12:58:51;;;;;;;5.63;4.78;;;32.60;73.30;;;;;;5043782;28;20227;-77
2021/06/15 13:01:43;;;;;;;4.57;4.18;;;32.60;73.60;;;;;;5049265;28;20212;-77
2021/06/15 13:04:26;;;;;;;4.40;3.95;;;32.60;73.80;;;;;;5038928;28;20221;-78
2021/06/15 13:06:54;;;;;;;5.60;4.10;;;32.60;73.00;;;;;;5050735;28;20222;-77
2021/06/15 13:09:30;;;;;;;5.22;4.55;;;32.60;73.60;;;;;;5037695;28;20591;-77
2021/06/15 13:12:05;;;;;;;4.68;4.38;;;32.70;73.60;;;;;;5049233;28;20218;-77